sensor_id;sensor_type;location;lat;lon;timestamp;temperature;humidity
66013;DHT22;52783;50.502;8.190;2024-01-11T00:00:25;-2.90;99.90
66013;DHT22;52783;50.502;8.190;2024-01-11T00:02:50;-3.00;99.90
66013;DHT22;52783;50.502;8.190;2024-01-11T00:05:16;-3.00;99.90
66013;DHT22;52783;50.502;8.190;2024-01-11T00:07:41;-3.00;99.90
66013;DHT22;52783;50.502;8.190;2024-01-11T00:10:07;-3.00;99.90
66013;DHT22;52783;50.502;8.190;2024-01-11T00:12:33;-3.00;99.90
66013;DHT22;52783;50.502;8.190;2024-01-11T00:14:58;-3.00;99.90
66013;DHT22;52783;50.502;8.190;2024-01-11T00:17:24;-3.00;99.90
66013;DHT22;52783;50.502;8.190;2024-01-11T00:19:50;-3.00;99.90
66013;DHT22;52783;50.502;8.190;2024-01-11T00:22:16;-3.00;99.90
66013;DHT22;52783;50.502;8.190;2024-01-11T00:24:41;-3.00;99.90
66013;DHT22;52783;50.502;8.190;2024-01-11T00:27:07;-3.00;99.90
66013;DHT22;52783;50.502;8.190;2024-01-11T00:29:33;-3.00;99.90
66013;DHT22;52783;50.502;8.190;2024-01-11T00:31:59;-3.10;99.90
66013;DHT22;52783;50.502;8.190;2024-01-11T00:34:25;-3.10;99.90
66013;DHT22;52783;50.502;8.190;2024-01-11T00:36:50;-3.10;99.90
66013;DHT22;52783;50.502;8.190;2024-01-11T00:39:16;-3.00;99.90
66013;DHT22;52783;50.502;8.190;2024-01-11T00:41:41;-3.10;99.90
66013;DHT22;52783;50.502;8.190;2024-01-11T00:44:07;-3.00;99.90
66013;DHT22;52783;50.502;8.190;2024-01-11T00:46:33;-3.10;99.90
66013;DHT22;52783;50.502;8.190;2024-01-11T00:48:59;-3.10;99.90
66013;DHT22;52783;50.502;8.190;2024-01-11T00:51:25;-3.00;99.90
66013;DHT22;52783;50.502;8.190;2024-01-11T00:53:50;-3.00;99.90
66013;DHT22;52783;50.502;8.190;2024-01-11T00:56:19;-3.00;99.90
66013;DHT22;52783;50.502;8.190;2024-01-11T00:58:45;-3.10;99.90
66013;DHT22;52783;50.502;8.190;2024-01-11T01:01:11;-3.00;99.90
66013;DHT22;52783;50.502;8.190;2024-01-11T01:03:38;-3.00;99.90
66013;DHT22;52783;50.502;8.190;2024-01-11T01:06:03;-3.00;99.90
66013;DHT22;52783;50.502;8.190;2024-01-11T01:08:29;-3.00;99.90
66013;DHT22;52783;50.502;8.190;2024-01-11T01:10:55;-3.10;99.90
66013;DHT22;52783;50.502;8.190;2024-01-11T01:13:20;-3.00;99.90
66013;DHT22;52783;50.502;8.190;2024-01-11T01:15:46;-3.00;99.90
66013;DHT22;52783;50.502;8.190;2024-01-11T01:18:11;-3.00;99.90
66013;DHT22;52783;50.502;8.190;2024-01-11T01:20:37;-3.00;99.90
66013;DHT22;52783;50.502;8.190;2024-01-11T01:23:03;-3.10;99.90
66013;DHT22;52783;50.502;8.190;2024-01-11T01:25:28;-3.10;99.90
66013;DHT22;52783;50.502;8.190;2024-01-11T01:27:55;-3.20;99.90
66013;DHT22;52783;50.502;8.190;2024-01-11T01:30:20;-3.20;99.90
66013;DHT22;52783;50.502;8.190;2024-01-11T01:32:46;-3.20;99.90
66013;DHT22;52783;50.502;8.190;2024-01-11T01:35:11;-3.20;99.90
66013;DHT22;52783;50.502;8.190;2024-01-11T01:37:37;-3.20;99.90
66013;DHT22;52783;50.502;8.190;2024-01-11T01:40:03;-3.20;99.90
66013;DHT22;52783;50.502;8.190;2024-01-11T01:42:28;-3.30;99.90
66013;DHT22;52783;50.502;8.190;2024-01-11T01:44:54;-3.30;99.90
66013;DHT22;52783;50.502;8.190;2024-01-11T01:47:20;-3.40;99.90
66013;DHT22;52783;50.502;8.190;2024-01-11T01:49:48;-3.40;99.90
66013;DHT22;52783;50.502;8.190;2024-01-11T01:52:14;-3.40;99.90
66013;DHT22;52783;50.502;8.190;2024-01-11T01:54:41;-3.50;99.90
66013;DHT22;52783;50.502;8.190;2024-01-11T01:57:08;-3.60;99.90
66013;DHT22;52783;50.502;8.190;2024-01-11T01:59:35;-3.60;99.90
66013;DHT22;52783;50.502;8.190;2024-01-11T02:02:03;-3.70;99.90
66013;DHT22;52783;50.502;8.190;2024-01-11T02:04:29;-3.60;99.90
66013;DHT22;52783;50.502;8.190;2024-01-11T02:06:55;-3.70;99.90
66013;DHT22;52783;50.502;8.190;2024-01-11T02:09:21;-3.80;99.90
66013;DHT22;52783;50.502;8.190;2024-01-11T02:11:48;-3.70;99.90
66013;DHT22;52783;50.502;8.190;2024-01-11T02:14:13;-3.70;99.90
66013;DHT22;52783;50.502;8.190;2024-01-11T02:16:39;-3.70;99.90
66013;DHT22;52783;50.502;8.190;2024-01-11T02:19:07;-3.60;99.90
66013;DHT22;52783;50.502;8.190;2024-01-11T02:21:37;-3.70;99.90
66013;DHT22;52783;50.502;8.190;2024-01-11T02:24:06;-3.70;99.90
66013;DHT22;52783;50.502;8.190;2024-01-11T02:26:33;-3.70;99.90
66013;DHT22;52783;50.502;8.190;2024-01-11T02:28:58;-3.80;99.90
66013;DHT22;52783;50.502;8.190;2024-01-11T02:31:24;-3.80;99.90
66013;DHT22;52783;50.502;8.190;2024-01-11T02:33:51;-3.80;99.90
66013;DHT22;52783;50.502;8.190;2024-01-11T02:36:17;-4.00;99.90
66013;DHT22;52783;50.502;8.190;2024-01-11T02:38:43;-4.00;99.90
66013;DHT22;52783;50.502;8.190;2024-01-11T02:41:10;-4.00;99.90
66013;DHT22;52783;50.502;8.190;2024-01-11T02:43:36;-4.00;99.90
66013;DHT22;52783;50.502;8.190;2024-01-11T02:46:09;-4.10;99.90
66013;DHT22;52783;50.502;8.190;2024-01-11T02:48:34;-4.20;99.90
66013;DHT22;52783;50.502;8.190;2024-01-11T02:51:00;-4.20;99.90
66013;DHT22;52783;50.502;8.190;2024-01-11T02:53:25;-4.30;99.90
66013;DHT22;52783;50.502;8.190;2024-01-11T02:55:51;-4.40;99.90
66013;DHT22;52783;50.502;8.190;2024-01-11T02:58:17;-4.40;99.90
66013;DHT22;52783;50.502;8.190;2024-01-11T03:00:42;-4.50;99.90
66013;DHT22;52783;50.502;8.190;2024-01-11T03:03:08;-4.50;99.90
66013;DHT22;52783;50.502;8.190;2024-01-11T03:05:33;-4.60;99.90
66013;DHT22;52783;50.502;8.190;2024-01-11T03:07:59;-4.60;99.90
66013;DHT22;52783;50.502;8.190;2024-01-11T03:10:24;-4.70;99.90
66013;DHT22;52783;50.502;8.190;2024-01-11T03:12:50;-4.80;99.90
66013;DHT22;52783;50.502;8.190;2024-01-11T03:15:15;-4.90;99.90
66013;DHT22;52783;50.502;8.190;2024-01-11T03:17:41;-5.00;99.90
66013;DHT22;52783;50.502;8.190;2024-01-11T03:20:07;-5.00;99.90
66013;DHT22;52783;50.502;8.190;2024-01-11T03:22:33;-5.00;99.90
66013;DHT22;52783;50.502;8.190;2024-01-11T03:24:59;-5.10;99.90
66013;DHT22;52783;50.502;8.190;2024-01-11T03:27:24;-5.10;99.90
66013;DHT22;52783;50.502;8.190;2024-01-11T03:29:50;-5.10;99.90
66013;DHT22;52783;50.502;8.190;2024-01-11T03:32:15;-5.10;99.90
66013;DHT22;52783;50.502;8.190;2024-01-11T03:34:41;-5.20;99.90
66013;DHT22;52783;50.502;8.190;2024-01-11T03:37:07;-5.20;99.90
66013;DHT22;52783;50.502;8.190;2024-01-11T03:39:33;-5.20;99.90
66013;DHT22;52783;50.502;8.190;2024-01-11T03:41:59;-5.20;99.90
66013;DHT22;52783;50.502;8.190;2024-01-11T03:44:25;-5.30;99.90
66013;DHT22;52783;50.502;8.190;2024-01-11T03:46:50;-5.30;99.90
66013;DHT22;52783;50.502;8.190;2024-01-11T03:49:17;-5.30;99.90
66013;DHT22;52783;50.502;8.190;2024-01-11T03:51:42;-5.30;99.90
66013;DHT22;52783;50.502;8.190;2024-01-11T03:54:08;-5.40;99.90
66013;DHT22;52783;50.502;8.190;2024-01-11T03:56:36;-5.40;99.90
66013;DHT22;52783;50.502;8.190;2024-01-11T03:59:02;-5.50;99.90
66013;DHT22;52783;50.502;8.190;2024-01-11T04:01:27;-5.60;99.90
66013;DHT22;52783;50.502;8.190;2024-01-11T04:03:53;-5.60;99.90
66013;DHT22;52783;50.502;8.190;2024-01-11T04:06:21;-5.50;99.90
66013;DHT22;52783;50.502;8.190;2024-01-11T04:08:47;-5.50;99.90
66013;DHT22;52783;50.502;8.190;2024-01-11T04:11:13;-5.50;99.90
66013;DHT22;52783;50.502;8.190;2024-01-11T04:13:39;-5.50;99.90
66013;DHT22;52783;50.502;8.190;2024-01-11T04:16:07;-5.50;99.90
66013;DHT22;52783;50.502;8.190;2024-01-11T04:18:33;-5.50;99.90
66013;DHT22;52783;50.502;8.190;2024-01-11T04:20:59;-5.60;99.90
66013;DHT22;52783;50.502;8.190;2024-01-11T04:23:24;-5.60;99.90
66013;DHT22;52783;50.502;8.190;2024-01-11T04:25:50;-5.60;99.90
66013;DHT22;52783;50.502;8.190;2024-01-11T04:28:17;-5.60;99.90
66013;DHT22;52783;50.502;8.190;2024-01-11T04:30:42;-5.60;99.90
66013;DHT22;52783;50.502;8.190;2024-01-11T04:33:08;-5.80;99.90
66013;DHT22;52783;50.502;8.190;2024-01-11T04:35:34;-5.90;99.90
66013;DHT22;52783;50.502;8.190;2024-01-11T04:37:59;-5.90;99.90
66013;DHT22;52783;50.502;8.190;2024-01-11T04:40:25;-5.90;99.90
66013;DHT22;52783;50.502;8.190;2024-01-11T04:42:51;-5.80;99.90
66013;DHT22;52783;50.502;8.190;2024-01-11T04:45:16;-5.70;99.90
66013;DHT22;52783;50.502;8.190;2024-01-11T04:47:42;-5.70;99.90
66013;DHT22;52783;50.502;8.190;2024-01-11T04:50:08;-5.80;99.90
66013;DHT22;52783;50.502;8.190;2024-01-11T04:52:33;-5.80;99.90
66013;DHT22;52783;50.502;8.190;2024-01-11T04:54:59;-5.80;99.90
66013;DHT22;52783;50.502;8.190;2024-01-11T04:57:24;-5.90;99.90
66013;DHT22;52783;50.502;8.190;2024-01-11T04:59:50;-5.90;99.90
66013;DHT22;52783;50.502;8.190;2024-01-11T05:02:16;-5.90;99.90
66013;DHT22;52783;50.502;8.190;2024-01-11T05:04:41;-5.80;99.90
66013;DHT22;52783;50.502;8.190;2024-01-11T05:07:07;-5.80;99.90
66013;DHT22;52783;50.502;8.190;2024-01-11T05:09:32;-5.90;99.90
66013;DHT22;52783;50.502;8.190;2024-01-11T05:11:58;-6.00;99.90
66013;DHT22;52783;50.502;8.190;2024-01-11T05:14:23;-6.00;99.90
66013;DHT22;52783;50.502;8.190;2024-01-11T05:16:49;-6.10;99.90
66013;DHT22;52783;50.502;8.190;2024-01-11T05:19:15;-6.00;99.90
66013;DHT22;52783;50.502;8.190;2024-01-11T05:21:41;-6.10;99.90
66013;DHT22;52783;50.502;8.190;2024-01-11T05:24:06;-6.10;99.90
66013;DHT22;52783;50.502;8.190;2024-01-11T05:26:32;-6.10;99.90
66013;DHT22;52783;50.502;8.190;2024-01-11T05:28:58;-6.10;99.90
66013;DHT22;52783;50.502;8.190;2024-01-11T05:31:23;-6.20;99.90
66013;DHT22;52783;50.502;8.190;2024-01-11T05:33:49;-6.10;99.90
66013;DHT22;52783;50.502;8.190;2024-01-11T05:36:14;-6.10;99.90
66013;DHT22;52783;50.502;8.190;2024-01-11T05:38:40;-6.20;99.90
66013;DHT22;52783;50.502;8.190;2024-01-11T05:41:06;-6.10;99.90
66013;DHT22;52783;50.502;8.190;2024-01-11T05:43:31;-6.10;99.90
66013;DHT22;52783;50.502;8.190;2024-01-11T05:45:57;-6.20;99.90
66013;DHT22;52783;50.502;8.190;2024-01-11T05:48:22;-6.20;99.90
66013;DHT22;52783;50.502;8.190;2024-01-11T05:50:48;-6.20;99.90
66013;DHT22;52783;50.502;8.190;2024-01-11T05:53:13;-6.20;99.90
66013;DHT22;52783;50.502;8.190;2024-01-11T05:55:39;-6.20;99.90
66013;DHT22;52783;50.502;8.190;2024-01-11T05:58:05;-6.10;99.90
66013;DHT22;52783;50.502;8.190;2024-01-11T06:00:31;-6.30;99.90
66013;DHT22;52783;50.502;8.190;2024-01-11T06:02:56;-6.30;99.90
66013;DHT22;52783;50.502;8.190;2024-01-11T06:05:22;-6.20;99.90
66013;DHT22;52783;50.502;8.190;2024-01-11T06:07:47;-6.30;99.90
66013;DHT22;52783;50.502;8.190;2024-01-11T06:10:14;-6.30;99.90
66013;DHT22;52783;50.502;8.190;2024-01-11T06:12:40;-6.30;99.90
66013;DHT22;52783;50.502;8.190;2024-01-11T06:15:07;-6.30;99.90
66013;DHT22;52783;50.502;8.190;2024-01-11T06:17:33;-6.30;99.90
66013;DHT22;52783;50.502;8.190;2024-01-11T06:19:58;-6.40;99.90
66013;DHT22;52783;50.502;8.190;2024-01-11T06:22:24;-6.50;99.90
66013;DHT22;52783;50.502;8.190;2024-01-11T06:24:49;-6.50;99.90
66013;DHT22;52783;50.502;8.190;2024-01-11T06:27:15;-6.50;99.90
66013;DHT22;52783;50.502;8.190;2024-01-11T06:29:40;-6.60;99.90
66013;DHT22;52783;50.502;8.190;2024-01-11T06:32:07;-6.60;99.90
66013;DHT22;52783;50.502;8.190;2024-01-11T06:34:34;-6.60;99.90
66013;DHT22;52783;50.502;8.190;2024-01-11T06:37:01;-6.60;99.90
66013;DHT22;52783;50.502;8.190;2024-01-11T06:39:28;-6.50;99.90
66013;DHT22;52783;50.502;8.190;2024-01-11T06:41:53;-6.50;99.90
66013;DHT22;52783;50.502;8.190;2024-01-11T06:44:19;-6.50;99.90
66013;DHT22;52783;50.502;8.190;2024-01-11T06:46:44;-6.50;99.90
66013;DHT22;52783;50.502;8.190;2024-01-11T06:49:10;-6.50;99.90
66013;DHT22;52783;50.502;8.190;2024-01-11T06:51:37;-6.60;99.90
66013;DHT22;52783;50.502;8.190;2024-01-11T06:54:02;-6.60;99.90
66013;DHT22;52783;50.502;8.190;2024-01-11T06:56:28;-6.60;99.90
66013;DHT22;52783;50.502;8.190;2024-01-11T06:58:54;-6.60;99.90
66013;DHT22;52783;50.502;8.190;2024-01-11T07:01:20;-6.60;99.90
66013;DHT22;52783;50.502;8.190;2024-01-11T07:03:46;-6.60;99.90
66013;DHT22;52783;50.502;8.190;2024-01-11T07:06:11;-6.60;99.90
66013;DHT22;52783;50.502;8.190;2024-01-11T07:08:37;-6.60;99.90
66013;DHT22;52783;50.502;8.190;2024-01-11T07:11:03;-6.70;99.90
66013;DHT22;52783;50.502;8.190;2024-01-11T07:13:30;-6.70;99.90
66013;DHT22;52783;50.502;8.190;2024-01-11T07:15:56;-6.70;99.90
66013;DHT22;52783;50.502;8.190;2024-01-11T07:18:23;-6.70;99.90
66013;DHT22;52783;50.502;8.190;2024-01-11T07:20:49;-6.70;99.90
66013;DHT22;52783;50.502;8.190;2024-01-11T07:23:15;-6.70;99.90
66013;DHT22;52783;50.502;8.190;2024-01-11T07:25:41;-6.60;99.90
66013;DHT22;52783;50.502;8.190;2024-01-11T07:28:07;-6.60;99.90
66013;DHT22;52783;50.502;8.190;2024-01-11T07:30:32;-6.60;99.90
66013;DHT22;52783;50.502;8.190;2024-01-11T07:32:58;-6.70;99.90
66013;DHT22;52783;50.502;8.190;2024-01-11T07:35:24;-6.60;99.90
66013;DHT22;52783;50.502;8.190;2024-01-11T07:37:49;-6.60;99.90
66013;DHT22;52783;50.502;8.190;2024-01-11T07:40:15;-6.60;99.90
66013;DHT22;52783;50.502;8.190;2024-01-11T07:42:42;-6.60;99.90
66013;DHT22;52783;50.502;8.190;2024-01-11T07:45:08;-6.70;99.90
66013;DHT22;52783;50.502;8.190;2024-01-11T07:47:35;-6.70;99.90
66013;DHT22;52783;50.502;8.190;2024-01-11T07:50:01;-6.70;99.90
66013;DHT22;52783;50.502;8.190;2024-01-11T07:52:28;-6.60;99.90
66013;DHT22;52783;50.502;8.190;2024-01-11T07:54:54;-6.60;99.90
66013;DHT22;52783;50.502;8.190;2024-01-11T07:57:19;-6.50;99.90
66013;DHT22;52783;50.502;8.190;2024-01-11T07:59:45;-6.50;99.90
66013;DHT22;52783;50.502;8.190;2024-01-11T08:02:10;-6.30;99.90
66013;DHT22;52783;50.502;8.190;2024-01-11T08:04:36;-6.10;99.90
66013;DHT22;52783;50.502;8.190;2024-01-11T08:07:04;-6.00;99.90
66013;DHT22;52783;50.502;8.190;2024-01-11T08:09:29;-5.90;99.90
66013;DHT22;52783;50.502;8.190;2024-01-11T08:11:55;-5.80;99.90
66013;DHT22;52783;50.502;8.190;2024-01-11T08:14:21;-5.60;99.90
66013;DHT22;52783;50.502;8.190;2024-01-11T08:16:46;-5.30;99.90
66013;DHT22;52783;50.502;8.190;2024-01-11T08:19:12;-5.20;99.90
66013;DHT22;52783;50.502;8.190;2024-01-11T08:21:41;-5.10;99.90
66013;DHT22;52783;50.502;8.190;2024-01-11T08:24:07;-4.90;99.90
66013;DHT22;52783;50.502;8.190;2024-01-11T08:26:33;-4.70;99.90
66013;DHT22;52783;50.502;8.190;2024-01-11T08:28:58;-4.50;99.90
66013;DHT22;52783;50.502;8.190;2024-01-11T08:31:24;-4.30;99.90
66013;DHT22;52783;50.502;8.190;2024-01-11T08:33:49;-4.20;99.90
66013;DHT22;52783;50.502;8.190;2024-01-11T08:36:16;-4.00;99.90
66013;DHT22;52783;50.502;8.190;2024-01-11T08:38:41;-4.00;99.90
66013;DHT22;52783;50.502;8.190;2024-01-11T08:41:07;-4.00;99.90
66013;DHT22;52783;50.502;8.190;2024-01-11T08:43:32;-3.90;99.90
66013;DHT22;52783;50.502;8.190;2024-01-11T08:45:58;-3.90;99.90
66013;DHT22;52783;50.502;8.190;2024-01-11T08:48:24;-3.70;99.90
66013;DHT22;52783;50.502;8.190;2024-01-11T08:50:50;-3.70;99.90
66013;DHT22;52783;50.502;8.190;2024-01-11T08:53:15;-3.60;99.90
66013;DHT22;52783;50.502;8.190;2024-01-11T08:55:41;-3.50;99.90
66013;DHT22;52783;50.502;8.190;2024-01-11T08:58:08;-3.40;99.90
66013;DHT22;52783;50.502;8.190;2024-01-11T09:00:33;-3.20;99.90
66013;DHT22;52783;50.502;8.190;2024-01-11T09:02:59;-3.20;99.90
66013;DHT22;52783;50.502;8.190;2024-01-11T09:05:25;-3.10;99.90
66013;DHT22;52783;50.502;8.190;2024-01-11T09:07:50;-3.00;99.90
66013;DHT22;52783;50.502;8.190;2024-01-11T09:10:16;-3.00;99.90
66013;DHT22;52783;50.502;8.190;2024-01-11T09:12:41;-3.10;99.90
66013;DHT22;52783;50.502;8.190;2024-01-11T09:15:07;-3.00;99.90
66013;DHT22;52783;50.502;8.190;2024-01-11T09:17:33;-3.00;99.90
66013;DHT22;52783;50.502;8.190;2024-01-11T09:19:58;-3.10;99.90
66013;DHT22;52783;50.502;8.190;2024-01-11T09:22:24;-3.10;99.90
66013;DHT22;52783;50.502;8.190;2024-01-11T09:24:49;-3.20;99.90
66013;DHT22;52783;50.502;8.190;2024-01-11T09:27:15;-3.10;99.90
66013;DHT22;52783;50.502;8.190;2024-01-11T09:29:47;-3.30;99.90
66013;DHT22;52783;50.502;8.190;2024-01-11T09:32:13;-3.20;99.90
66013;DHT22;52783;50.502;8.190;2024-01-11T09:34:39;-3.20;99.90
66013;DHT22;52783;50.502;8.190;2024-01-11T09:37:04;-3.00;99.90
66013;DHT22;52783;50.502;8.190;2024-01-11T09:39:30;-2.90;99.90
66013;DHT22;52783;50.502;8.190;2024-01-11T09:41:59;-3.00;99.90
66013;DHT22;52783;50.502;8.190;2024-01-11T09:44:29;-3.00;99.90
66013;DHT22;52783;50.502;8.190;2024-01-11T09:46:57;-2.80;99.90
66013;DHT22;52783;50.502;8.190;2024-01-11T09:49:23;-2.70;99.90
66013;DHT22;52783;50.502;8.190;2024-01-11T09:51:51;-2.60;99.90
66013;DHT22;52783;50.502;8.190;2024-01-11T09:54:18;-2.50;99.90
66013;DHT22;52783;50.502;8.190;2024-01-11T09:56:46;-2.50;99.90
66013;DHT22;52783;50.502;8.190;2024-01-11T09:59:16;-2.60;99.90
66013;DHT22;52783;50.502;8.190;2024-01-11T10:01:43;-2.40;99.90
66013;DHT22;52783;50.502;8.190;2024-01-11T10:04:09;-2.40;99.90
66013;DHT22;52783;50.502;8.190;2024-01-11T10:06:38;-2.30;99.90
66013;DHT22;52783;50.502;8.190;2024-01-11T10:09:04;-2.30;99.90
66013;DHT22;52783;50.502;8.190;2024-01-11T10:11:30;-2.20;99.90
66013;DHT22;52783;50.502;8.190;2024-01-11T10:13:57;-2.20;99.90
66013;DHT22;52783;50.502;8.190;2024-01-11T10:16:23;-2.10;99.90
66013;DHT22;52783;50.502;8.190;2024-01-11T10:18:49;-2.00;99.90
66013;DHT22;52783;50.502;8.190;2024-01-11T10:21:19;-2.00;99.90
66013;DHT22;52783;50.502;8.190;2024-01-11T10:23:44;-1.90;99.90
66013;DHT22;52783;50.502;8.190;2024-01-11T10:26:10;-1.80;99.90
66013;DHT22;52783;50.502;8.190;2024-01-11T10:28:36;-1.90;99.90
66013;DHT22;52783;50.502;8.190;2024-01-11T10:31:04;-1.80;99.90
66013;DHT22;52783;50.502;8.190;2024-01-11T10:33:33;-1.80;99.90
66013;DHT22;52783;50.502;8.190;2024-01-11T10:36:00;-1.70;99.90
66013;DHT22;52783;50.502;8.190;2024-01-11T10:38:26;-1.60;99.90
66013;DHT22;52783;50.502;8.190;2024-01-11T10:40:53;-1.50;99.90
66013;DHT22;52783;50.502;8.190;2024-01-11T10:43:21;-1.30;99.90
66013;DHT22;52783;50.502;8.190;2024-01-11T10:45:52;-1.30;99.90
66013;DHT22;52783;50.502;8.190;2024-01-11T10:48:24;-1.20;99.90
66013;DHT22;52783;50.502;8.190;2024-01-11T10:50:54;-1.20;99.90
66013;DHT22;52783;50.502;8.190;2024-01-11T10:53:45;-1.20;99.90
66013;DHT22;52783;50.502;8.190;2024-01-11T10:56:13;-1.10;99.90
66013;DHT22;52783;50.502;8.190;2024-01-11T10:58:42;-1.10;99.90
66013;DHT22;52783;50.502;8.190;2024-01-11T11:01:10;-1.00;99.90
66013;DHT22;52783;50.502;8.190;2024-01-11T11:03:36;-1.00;99.90
66013;DHT22;52783;50.502;8.190;2024-01-11T11:06:04;-0.80;99.90
66013;DHT22;52783;50.502;8.190;2024-01-11T11:08:33;-1.10;99.90
66013;DHT22;52783;50.502;8.190;2024-01-11T11:11:01;-0.90;99.90
66013;DHT22;52783;50.502;8.190;2024-01-11T11:13:29;-0.80;99.90
66013;DHT22;52783;50.502;8.190;2024-01-11T11:15:54;-1.00;99.90
66013;DHT22;52783;50.502;8.190;2024-01-11T11:18:22;-0.80;99.90
66013;DHT22;52783;50.502;8.190;2024-01-11T11:20:48;-0.60;99.90
66013;DHT22;52783;50.502;8.190;2024-01-11T11:23:16;-0.50;99.90
66013;DHT22;52783;50.502;8.190;2024-01-11T11:25:44;-0.50;99.90
66013;DHT22;52783;50.502;8.190;2024-01-11T11:28:12;-0.60;99.90
66013;DHT22;52783;50.502;8.190;2024-01-11T11:30:40;-0.40;99.90
66013;DHT22;52783;50.502;8.190;2024-01-11T11:33:10;-0.40;99.90
66013;DHT22;52783;50.502;8.190;2024-01-11T11:35:37;-0.10;99.90
66013;DHT22;52783;50.502;8.190;2024-01-11T11:38:03;-0.20;99.90
66013;DHT22;52783;50.502;8.190;2024-01-11T11:40:32;0.00;99.90
66013;DHT22;52783;50.502;8.190;2024-01-11T11:43:02;0.00;99.90
66013;DHT22;52783;50.502;8.190;2024-01-11T11:45:29;0.00;99.90
66013;DHT22;52783;50.502;8.190;2024-01-11T11:47:54;0.20;99.90
66013;DHT22;52783;50.502;8.190;2024-01-11T11:50:23;0.20;99.90
66013;DHT22;52783;50.502;8.190;2024-01-11T11:52:55;0.30;99.90
66013;DHT22;52783;50.502;8.190;2024-01-11T11:55:25;0.10;99.90
66013;DHT22;52783;50.502;8.190;2024-01-11T11:57:52;0.20;99.90
66013;DHT22;52783;50.502;8.190;2024-01-11T12:00:19;-0.10;99.90
66013;DHT22;52783;50.502;8.190;2024-01-11T12:02:49;0.20;99.90
66013;DHT22;52783;50.502;8.190;2024-01-11T12:05:16;0.20;99.90
66013;DHT22;52783;50.502;8.190;2024-01-11T12:07:44;0.30;99.90
66013;DHT22;52783;50.502;8.190;2024-01-11T12:10:10;0.50;99.90
66013;DHT22;52783;50.502;8.190;2024-01-11T12:12:36;0.60;99.90
66013;DHT22;52783;50.502;8.190;2024-01-11T12:15:03;0.80;99.90
66013;DHT22;52783;50.502;8.190;2024-01-11T12:17:29;0.60;99.90
66013;DHT22;52783;50.502;8.190;2024-01-11T12:19:55;0.70;99.90
66013;DHT22;52783;50.502;8.190;2024-01-11T12:22:20;0.80;99.90
66013;DHT22;52783;50.502;8.190;2024-01-11T12:24:46;1.00;99.90
66013;DHT22;52783;50.502;8.190;2024-01-11T12:27:12;1.10;99.90
66013;DHT22;52783;50.502;8.190;2024-01-11T12:29:41;1.20;99.90
66013;DHT22;52783;50.502;8.190;2024-01-11T12:32:07;1.20;99.90
66013;DHT22;52783;50.502;8.190;2024-01-11T12:34:36;1.20;99.90
66013;DHT22;52783;50.502;8.190;2024-01-11T12:37:02;1.20;99.90
66013;DHT22;52783;50.502;8.190;2024-01-11T12:39:30;1.20;99.90
66013;DHT22;52783;50.502;8.190;2024-01-11T12:41:56;1.20;99.90
66013;DHT22;52783;50.502;8.190;2024-01-11T12:44:25;1.00;99.90
66013;DHT22;52783;50.502;8.190;2024-01-11T12:46:51;1.10;99.90
66013;DHT22;52783;50.502;8.190;2024-01-11T12:49:18;1.10;99.90
66013;DHT22;52783;50.502;8.190;2024-01-11T12:51:43;1.00;99.90
66013;DHT22;52783;50.502;8.190;2024-01-11T12:54:12;1.20;99.90
66013;DHT22;52783;50.502;8.190;2024-01-11T12:56:43;1.20;99.90
66013;DHT22;52783;50.502;8.190;2024-01-11T12:59:09;1.20;99.90
66013;DHT22;52783;50.502;8.190;2024-01-11T13:01:37;1.30;99.90
66013;DHT22;52783;50.502;8.190;2024-01-11T13:04:03;1.20;99.90
66013;DHT22;52783;50.502;8.190;2024-01-11T13:06:30;1.30;99.90
66013;DHT22;52783;50.502;8.190;2024-01-11T13:08:56;1.40;99.90
66013;DHT22;52783;50.502;8.190;2024-01-11T13:11:22;1.40;99.90
66013;DHT22;52783;50.502;8.190;2024-01-11T13:13:50;1.40;99.90
66013;DHT22;52783;50.502;8.190;2024-01-11T13:16:16;1.30;99.90
66013;DHT22;52783;50.502;8.190;2024-01-11T13:18:44;1.50;99.90
66013;DHT22;52783;50.502;8.190;2024-01-11T13:21:10;1.50;99.90
66013;DHT22;52783;50.502;8.190;2024-01-11T13:23:35;1.50;99.90
66013;DHT22;52783;50.502;8.190;2024-01-11T13:26:03;1.60;99.90
66013;DHT22;52783;50.502;8.190;2024-01-11T13:28:30;1.60;99.90
66013;DHT22;52783;50.502;8.190;2024-01-11T13:30:55;1.50;99.90
66013;DHT22;52783;50.502;8.190;2024-01-11T13:33:21;1.60;99.90
66013;DHT22;52783;50.502;8.190;2024-01-11T13:35:49;1.70;99.90
66013;DHT22;52783;50.502;8.190;2024-01-11T13:38:15;1.70;99.90
66013;DHT22;52783;50.502;8.190;2024-01-11T13:40:40;1.70;99.90
66013;DHT22;52783;50.502;8.190;2024-01-11T13:43:08;1.70;99.90
66013;DHT22;52783;50.502;8.190;2024-01-11T13:45:35;1.70;99.90
66013;DHT22;52783;50.502;8.190;2024-01-11T13:48:06;1.70;99.90
66013;DHT22;52783;50.502;8.190;2024-01-11T13:50:32;1.70;99.90
66013;DHT22;52783;50.502;8.190;2024-01-11T13:52:58;1.70;99.90
66013;DHT22;52783;50.502;8.190;2024-01-11T13:55:24;1.70;99.90
66013;DHT22;52783;50.502;8.190;2024-01-11T13:57:50;1.70;99.90
66013;DHT22;52783;50.502;8.190;2024-01-11T14:00:17;1.60;99.90
66013;DHT22;52783;50.502;8.190;2024-01-11T14:02:46;1.60;99.90
66013;DHT22;52783;50.502;8.190;2024-01-11T14:05:12;1.50;99.90
66013;DHT22;52783;50.502;8.190;2024-01-11T14:07:40;1.50;99.90
66013;DHT22;52783;50.502;8.190;2024-01-11T14:10:07;1.60;99.90
66013;DHT22;52783;50.502;8.190;2024-01-11T14:12:37;1.50;99.90
66013;DHT22;52783;50.502;8.190;2024-01-11T14:15:06;1.50;99.90
66013;DHT22;52783;50.502;8.190;2024-01-11T14:17:32;1.60;99.90
66013;DHT22;52783;50.502;8.190;2024-01-11T14:20:02;1.50;99.90
66013;DHT22;52783;50.502;8.190;2024-01-11T14:22:28;1.50;99.90
66013;DHT22;52783;50.502;8.190;2024-01-11T14:24:54;1.50;99.90
66013;DHT22;52783;50.502;8.190;2024-01-11T14:27:23;1.50;99.90
66013;DHT22;52783;50.502;8.190;2024-01-11T14:29:49;1.50;99.90
66013;DHT22;52783;50.502;8.190;2024-01-11T14:32:15;1.50;99.90
66013;DHT22;52783;50.502;8.190;2024-01-11T14:34:43;1.50;99.90
66013;DHT22;52783;50.502;8.190;2024-01-11T14:37:13;1.50;99.90
66013;DHT22;52783;50.502;8.190;2024-01-11T14:39:38;1.50;99.90
66013;DHT22;52783;50.502;8.190;2024-01-11T14:42:05;1.40;99.90
66013;DHT22;52783;50.502;8.190;2024-01-11T14:44:31;1.40;99.90
66013;DHT22;52783;50.502;8.190;2024-01-11T14:46:56;1.40;99.90
66013;DHT22;52783;50.502;8.190;2024-01-11T14:49:22;1.40;99.90
66013;DHT22;52783;50.502;8.190;2024-01-11T14:51:49;1.40;99.90
66013;DHT22;52783;50.502;8.190;2024-01-11T14:54:14;1.30;99.90
66013;DHT22;52783;50.502;8.190;2024-01-11T14:56:40;1.40;99.90
66013;DHT22;52783;50.502;8.190;2024-01-11T14:59:05;1.30;99.90
66013;DHT22;52783;50.502;8.190;2024-01-11T15:01:31;1.30;99.90
66013;DHT22;52783;50.502;8.190;2024-01-11T15:03:56;1.30;99.90
66013;DHT22;52783;50.502;8.190;2024-01-11T15:06:22;1.30;99.90
66013;DHT22;52783;50.502;8.190;2024-01-11T15:08:47;1.30;99.90
66013;DHT22;52783;50.502;8.190;2024-01-11T15:11:13;1.20;99.90
66013;DHT22;52783;50.502;8.190;2024-01-11T15:13:39;1.20;99.90
66013;DHT22;52783;50.502;8.190;2024-01-11T15:16:05;1.20;99.90
66013;DHT22;52783;50.502;8.190;2024-01-11T15:18:31;1.20;99.90
66013;DHT22;52783;50.502;8.190;2024-01-11T15:20:57;1.10;99.90
66013;DHT22;52783;50.502;8.190;2024-01-11T15:23:22;1.10;99.90
66013;DHT22;52783;50.502;8.190;2024-01-11T15:25:48;1.00;99.90
66013;DHT22;52783;50.502;8.190;2024-01-11T15:28:13;1.00;99.90